Time;durP1;ratioP1;P1;durP2;ratioP2;P2;SDS_P1;SDS_P2;PMS_P1;PMS_P2;Temp;Humidity;BMP_temperature;BMP_pressure;BME280_temperature;BME280_humidity;BME280_pressure;Samples;Min_cycle;Max_cycle;Signal;HPM_P1;HPM_P2
2023/01/30 00:04:32;;;;;;;11.52;6.43;;;6.60;99.90;;;;;;20648132;28;20408;-46
2023/01/30 00:14:33;;;;;;;12.98;6.13;;;6.70;99.90;;;;;;20639560;28;20149;-46
2023/01/30 00:24:34;;;;;;;10.75;4.03;;;6.90;99.90;;;;;;20637102;28;20049;-46
2023/01/30 00:34:35;;;;;;;7.32;4.32;;;7.10;99.90;;;;;;20638923;28;20088;-47
2023/01/30 00:54:55;;;;;;;7.25;2.90;;;7.30;99.90;;;;;;20627364;28;20074;-46
2023/01/30 01:04:56;;;;;;;6.35;3.20;;;7.70;99.90;;;;;;20633085;28;20035;-46
2023/01/30 01:14:57;;;;;;;6.10;2.05;;;7.90;99.90;;;;;;20638809;28;20045;-46
2023/01/30 01:24:58;;;;;;;8.02;2.30;;;8.00;99.90;;;;;;20631745;28;20057;-46
2023/01/30 01:34:59;;;;;;;4.65;2.40;;;8.10;99.90;;;;;;20634901;28;20567;-46
2023/01/30 01:45:23;;;;;;;5.05;2.28;;;8.10;99.90;;;;;;20630014;28;20865;-45
2023/01/30 01:55:25;;;;;;;6.05;2.92;;;8.00;99.90;;;;;;20626855;28;20170;-45
2023/01/30 02:05:34;;;;;;;7.90;2.97;;;7.80;99.90;;;;;;20639524;28;20682;-45
2023/01/30 02:15:35;;;;;;;6.63;2.47;;;7.70;99.90;;;;;;20637329;28;20159;-45
2023/01/30 02:26:07;;;;;;;11.00;3.38;;;7.40;99.90;;;;;;20649159;28;20042;-45
2023/01/30 02:36:13;;;;;;;3.25;1.17;;;7.40;99.90;;;;;;20640265;28;20255;-45
2023/01/30 02:46:23;;;;;;;6.43;2.50;;;7.30;99.90;;;;;;20639606;28;20046;-45
2023/01/30 02:56:24;;;;;;;5.28;1.58;;;7.30;99.90;;;;;;20646790;28;20082;-45
2023/01/30 03:06:35;;;;;;;3.42;2.03;;;7.40;99.90;;;;;;20641477;28;20088;-45
2023/01/30 03:16:38;;;;;;;5.53;2.38;;;7.40;99.90;;;;;;20650134;28;20422;-45
2023/01/30 03:26:57;;;;;;;6.53;1.88;;;7.40;99.90;;;;;;20650212;28;21029;-45
2023/01/30 03:36:58;;;;;;;8.88;2.15;;;7.50;99.90;;;;;;20638109;28;20124;-46
2023/01/30 03:46:59;;;;;;;6.88;1.95;;;7.50;99.90;;;;;;20641601;28;20324;-45
2023/01/30 03:57:00;;;;;;;7.00;1.77;;;7.60;99.90;;;;;;20630458;28;20195;-45
2023/01/30 04:07:01;;;;;;;9.02;2.58;;;7.80;99.90;;;;;;20631235;28;20077;-45
2023/01/30 04:17:02;;;;;;;6.65;1.70;;;7.80;99.90;;;;;;20643793;28;20131;-46
2023/01/30 04:27:03;;;;;;;4.05;1.10;;;7.70;99.90;;;;;;20645345;28;20057;-46
2023/01/30 04:37:04;;;;;;;4.80;2.33;;;7.70;99.90;;;;;;20641663;28;20391;-45
2023/01/30 04:47:05;;;;;;;3.50;1.20;;;7.70;99.90;;;;;;20645470;28;20589;-46
2023/01/30 04:57:06;;;;;;;3.00;0.88;;;7.80;99.90;;;;;;20631969;28;20840;-45
2023/01/30 05:07:07;;;;;;;7.28;1.40;;;7.90;99.90;;;;;;20633024;28;20336;-45
2023/01/30 05:17:08;;;;;;;3.33;1.55;;;8.00;99.90;;;;;;20630250;28;20069;-46
2023/01/30 05:27:09;;;;;;;3.17;1.40;;;7.90;99.90;;;;;;20629705;28;20034;-46
2023/01/30 05:37:11;;;;;;;4.20;1.73;;;7.80;96.90;;;;;;20633677;28;20045;-45
2023/01/30 05:47:12;;;;;;;4.20;1.70;;;7.60;90.00;;;;;;20633736;28;20168;-46
2023/01/30 05:57:13;;;;;;;6.45;1.85;;;7.50;87.00;;;;;;20623817;28;20108;-45
2023/01/30 06:07:17;;;;;;;5.70;2.45;;;7.20;90.20;;;;;;20636105;28;20460;-45
2023/01/30 06:17:18;;;;;;;11.70;2.47;;;7.10;72.10;;;;;;20630273;28;20589;-46
2023/01/30 06:27:19;;;;;;;34.53;3.42;;;6.90;59.90;;;;;;20639874;28;20045;-46
2023/01/30 06:37:20;;;;;;;4.72;2.05;;;6.80;57.90;;;;;;20638615;28;20042;-46
2023/01/30 06:47:21;;;;;;;7.43;2.97;;;6.70;57.60;;;;;;20652334;28;20157;-46
2023/01/30 06:57:22;;;;;;;14.05;3.20;;;6.80;48.70;;;;;;20655292;28;20502;-46
2023/01/30 07:07:23;;;;;;;3.90;1.73;;;6.70;40.00;;;;;;20650025;28;20037;-46
2023/01/30 07:17:24;;;;;;;9.18;2.72;;;6.60;31.80;;;;;;20648943;28;20133;-45
2023/01/30 07:27:25;;;;;;;5.15;1.77;;;6.70;24.70;;;;;;20657103;28;20112;-45
2023/01/30 07:37:26;;;;;;;5.88;1.80;;;6.70;23.80;;;;;;20644961;28;20046;-46
2023/01/30 07:47:27;;;;;;;10.30;3.60;;;6.70;22.30;;;;;;20647967;28;20148;-46
2023/01/30 07:57:28;;;;;;;3.20;0.95;;;6.70;23.10;;;;;;20648073;28;20137;-46
2023/01/30 08:07:29;;;;;;;4.40;1.70;;;6.70;23.60;;;;;;20637034;28;20917;-46
2023/01/30 08:17:30;;;;;;;14.75;2.80;;;6.70;24.10;;;;;;20643412;28;20050;-46
2023/01/30 08:27:31;;;;;;;9.80;2.85;;;6.70;26.40;;;;;;20649081;28;20127;-46
2023/01/30 08:37:32;;;;;;;5.05;1.23;;;7.00;22.30;;;;;;20650656;28;20046;-46
2023/01/30 08:47:34;;;;;;;7.43;1.85;;;7.10;21.70;;;;;;20580439;28;20306;-46
2023/01/30 08:57:35;;;;;;;10.80;2.45;;;7.30;19.40;;;;;;20634416;28;20124;-46
2023/01/30 09:07:36;;;;;;;4.88;1.27;;;7.40;18.00;;;;;;20626045;28;20152;-46
2023/01/30 09:17:37;;;;;;;5.07;1.92;;;7.30;18.90;;;;;;20631946;28;20034;-46
2023/01/30 09:27:38;;;;;;;12.07;2.22;;;7.50;17.10;;;;;;20622274;28;20185;-46
2023/01/30 09:37:49;;;;;;;11.70;2.78;;;7.60;14.70;;;;;;20619151;28;20121;-46
2023/01/30 09:48:32;;;;;;;13.77;3.78;;;7.70;15.00;;;;;;20616764;28;20069;-46
2023/01/30 09:58:44;;;;;;;6.55;2.15;;;7.80;15.30;;;;;;20608467;28;20838;-45
2023/01/30 10:09:03;;;;;;;11.00;2.70;;;7.90;14.30;;;;;;20620548;28;20042;-46
2023/01/30 10:19:19;;;;;;;4.80;1.13;;;7.80;15.90;;;;;;20624833;28;20128;-46
2023/01/30 10:29:27;;;;;;;4.57;1.60;;;8.00;13.10;;;;;;20617741;28;20689;-46
2023/01/30 10:40:02;;;;;;;8.45;2.38;;;8.00;14.50;;;;;;20620258;28;20733;-46
2023/01/30 10:50:16;;;;;;;3.90;1.88;;;8.10;13.30;;;;;;20591059;28;20710;-46
2023/01/30 11:00:42;;;;;;;7.22;2.65;;;8.10;11.60;;;;;;20589412;28;20675;-44
2023/01/30 11:10:43;;;;;;;10.48;2.03;;;8.10;10.00;;;;;;20609427;28;20820;-44
2023/01/30 11:20:50;;;;;;;8.07;1.40;;;8.60;11.00;;;;;;20635087;28;20064;-46
2023/01/30 11:30:59;;;;;;;6.73;2.90;;;9.00;8.10;;;;;;20641693;28;20100;-46
2023/01/30 11:41:16;;;;;;;5.32;2.25;;;9.60;5.20;;;;;;20645364;28;20449;-46
2023/01/30 11:51:18;;;;;;;13.10;1.87;;;9.70;1.90;;;;;;20635108;28;20852;-45
2023/01/30 12:01:19;;;;;;;4.53;2.03;;;9.50;2.20;;;;;;20619883;28;20156;-46
2023/01/30 12:11:35;;;;;;;5.10;1.50;;;10.00;1.80;;;;;;20609809;28;20081;-47
2023/01/30 12:21:46;;;;;;;5.45;1.63;;;9.70;1.90;;;;;;20609245;28;20818;-46
2023/01/30 12:31:57;;;;;;;3.88;2.33;;;10.30;1.10;;;;;;20609180;28;20573;-45
2023/01/30 12:42:25;;;;;;;4.45;1.70;;;10.40;1.00;;;;;;20621288;28;20110;-45
2023/01/30 12:53:03;;;;;;;4.70;1.53;;;10.90;1.00;;;;;;20619250;28;22680;-45
2023/01/30 13:03:18;;;;;;;4.40;1.67;;;10.40;1.00;;;;;;20629989;28;20924;-45
2023/01/30 13:13:45;;;;;;;11.00;3.03;;;9.60;1.00;;;;;;20608082;28;21070;-45
2023/01/30 13:24:05;;;;;;;6.60;2.58;;;9.10;1.00;;;;;;20627190;28;20183;-44
2023/01/30 13:34:12;;;;;;;6.15;1.52;;;8.80;2.70;;;;;;20607361;28;20133;-45
2023/01/30 13:44:27;;;;;;;9.93;2.73;;;8.80;1.90;;;;;;20546482;28;20116;-44
2023/01/30 13:54:45;;;;;;;5.47;2.25;;;8.80;4.80;;;;;;20551299;28;20838;-45
2023/01/30 14:04:48;;;;;;;4.50;1.70;;;8.70;1.30;;;;;;20533824;28;20781;-44
2023/01/30 14:15:03;;;;;;;6.57;1.90;;;9.00;1.20;;;;;;20483684;28;20084;-44
2023/01/30 14:25:29;;;;;;;6.10;1.85;;;9.20;1.00;;;;;;20531318;28;20046;-44
2023/01/30 14:35:31;;;;;;;15.43;2.15;;;8.90;1.70;;;;;;20528427;28;20669;-44
2023/01/30 14:45:47;;;;;;;4.60;1.90;;;8.80;2.70;;;;;;20610266;28;20139;-44
2023/01/30 14:55:59;;;;;;;6.15;1.52;;;8.70;2.30;;;;;;20620896;28;21332;-44
2023/01/30 15:06:00;;;;;;;6.15;1.80;;;8.60;1.40;;;;;;20648509;28;20121;-44
2023/01/30 15:16:39;;;;;;;14.18;2.00;;;8.50;2.20;;;;;;20626951;28;20069;-44
2023/01/30 15:27:10;;;;;;;9.25;3.10;;;8.40;3.60;;;;;;20604333;28;22197;-44
2023/01/30 15:37:30;;;;;;;5.90;1.30;;;8.50;3.00;;;;;;20639562;28;20152;-44
2023/01/30 15:47:40;;;;;;;4.05;1.17;;;8.50;3.60;;;;;;20629733;28;20337;-44
2023/01/30 15:57:46;;;;;;;6.45;2.60;;;8.40;3.80;;;;;;20627589;28;20141;-44
2023/01/30 16:07:50;;;;;;;3.78;1.42;;;8.30;8.00;;;;;;20630308;28;20255;-44
2023/01/30 16:18:01;;;;;;;5.07;1.23;;;8.30;11.60;;;;;;20617879;28;20426;-43
2023/01/30 16:28:02;;;;;;;3.92;2.15;;;7.50;15.90;;;;;;20631632;28;20045;-44
2023/01/30 16:38:29;;;;;;;6.32;1.55;;;7.00;22.90;;;;;;20636490;28;20182;-44
2023/01/30 16:48:35;;;;;;;6.35;2.15;;;6.70;27.90;;;;;;20621270;28;20975;-44
2023/01/30 16:58:37;;;;;;;5.88;2.50;;;6.60;34.10;;;;;;20645793;28;20538;-44
2023/01/30 17:08:52;;;;;;;3.42;1.08;;;6.70;52.50;;;;;;20647041;28;20489;-44
2023/01/30 17:18:55;;;;;;;4.57;2.20;;;6.70;60.20;;;;;;20642036;28;20124;-44
2023/01/30 17:28:56;;;;;;;8.00;2.67;;;6.30;93.40;;;;;;20640464;28;20160;-44
2023/01/30 17:38:58;;;;;;;5.95;2.25;;;6.00;99.90;;;;;;20653762;28;20049;-44
2023/01/30 17:48:59;;;;;;;9.88;2.85;;;5.80;99.90;;;;;;20645276;28;20606;-44
2023/01/30 17:59:00;;;;;;;15.00;2.50;;;5.80;99.90;;;;;;20600959;28;20675;-44
2023/01/30 18:09:02;;;;;;;9.23;2.90;;;5.60;99.90;;;;;;20629052;28;20133;-44
2023/01/30 18:19:07;;;;;;;8.70;2.58;;;5.50;99.90;;;;;;20622954;28;20494;-44
2023/01/30 18:29:09;;;;;;;9.20;3.03;;;5.60;99.90;;;;;;20636556;28;20124;-44
2023/01/30 18:39:11;;;;;;;5.63;3.10;;;5.70;99.90;;;;;;20628778;28;20523;-44
2023/01/30 18:49:12;;;;;;;7.55;2.95;;;5.80;99.90;;;;;;20644488;28;20434;-44
2023/01/30 18:59:13;;;;;;;12.30;3.05;;;5.80;99.90;;;;;;20630712;28;20081;-44
2023/01/30 19:09:16;;;;;;;7.30;2.83;;;5.60;99.90;;;;;;20626645;28;20033;-44
2023/01/30 19:19:17;;;;;;;14.75;4.15;;;5.60;99.90;;;;;;20623716;28;20129;-44
2023/01/30 19:29:19;;;;;;;11.52;2.63;;;5.60;95.90;;;;;;20616410;28;20248;-44
2023/01/30 19:39:20;;;;;;;6.50;2.47;;;5.50;90.80;;;;;;20597630;28;20042;-44
2023/01/30 19:49:21;;;;;;;8.55;1.52;;;5.20;94.00;;;;;;20586800;28;20030;-44
2023/01/30 19:59:22;;;;;;;17.75;4.75;;;5.10;99.90;;;;;;20639598;28;20058;-44
2023/01/30 20:09:23;;;;;;;7.57;2.35;;;4.90;99.90;;;;;;20631723;28;20069;-44
2023/01/30 20:19:24;;;;;;;4.15;1.90;;;4.60;99.90;;;;;;20613691;28;21931;-44
2023/01/30 20:29:25;;;;;;;8.90;3.35;;;4.60;99.90;;;;;;20627603;28;20454;-44
2023/01/30 20:39:26;;;;;;;20.38;3.05;;;4.60;99.90;;;;;;20625626;28;20086;-44
2023/01/30 20:49:27;;;;;;;6.75;2.63;;;4.50;99.90;;;;;;20627059;28;20084;-44
2023/01/30 20:59:28;;;;;;;9.10;1.77;;;4.50;99.90;;;;;;20620587;28;20035;-44
2023/01/30 21:09:30;;;;;;;6.93;2.58;;;4.40;99.90;;;;;;20629058;28;20185;-44
2023/01/30 21:19:31;;;;;;;6.75;2.30;;;4.40;99.90;;;;;;20643358;28;20570;-44
2023/01/30 21:29:32;;;;;;;3.50;1.38;;;4.30;99.90;;;;;;20640319;28;20136;-44
2023/01/30 21:49:53;;;;;;;3.38;1.77;;;4.70;99.90;;;;;;20629907;28;20587;-44
2023/01/30 21:59:54;;;;;;;6.68;1.35;;;4.60;99.90;;;;;;20639699;28;20225;-44
2023/01/30 22:09:55;;;;;;;3.33;1.20;;;4.50;99.90;;;;;;20630824;28;20132;-44
2023/01/30 22:19:56;;;;;;;6.93;2.03;;;4.30;99.90;;;;;;20625372;28;20188;-44
2023/01/30 22:29:57;;;;;;;3.90;1.45;;;4.20;99.90;;;;;;20631387;28;20297;-44
2023/01/30 22:39:58;;;;;;;10.27;2.40;;;4.00;99.90;;;;;;20635857;28;20402;-44
2023/01/30 22:49:59;;;;;;;3.67;1.23;;;3.90;99.90;;;;;;20641509;28;20324;-44
2023/01/30 23:00:01;;;;;;;9.23;1.98;;;3.70;99.90;;;;;;20646124;28;20041;-44
2023/01/30 23:10:02;;;;;;;7.03;2.08;;;3.60;99.90;;;;;;20625118;28;20107;-44
2023/01/30 23:20:03;;;;;;;3.58;1.98;;;3.40;99.90;;;;;;20642684;28;20061;-44
2023/01/30 23:30:05;;;;;;;5.93;1.45;;;3.40;99.90;;;;;;20642053;28;20129;-44
2023/01/30 23:40:06;;;;;;;3.40;1.17;;;3.40;99.90;;;;;;20647493;28;20137;-44
2023/01/30 23:50:08;;;;;;;4.57;1.27;;;3.50;99.90;;;;;;20638339;28;20156;-44
